createdAt,value
2023-02-04T00:00:39.863Z,97732.78
2023-02-04T00:03:13.057Z,97718.91
2023-02-04T00:05:47.368Z,97719.47
2023-02-04T00:08:20.745Z,97724.28
2023-02-04T00:10:53.775Z,97728.03
2023-02-04T00:13:26.668Z,97721.13
2023-02-04T00:15:59.539Z,97716.88
2023-02-04T00:18:32.433Z,97715.78
2023-02-04T00:21:07.143Z,97712.31
2023-02-04T00:23:40.084Z,97719.81
2023-02-04T00:26:13.034Z,97725.44
2023-02-04T00:28:45.952Z,97721.72
2023-02-04T00:31:19.264Z,97719.06
2023-02-04T00:33:52.242Z,97713.25
2023-02-04T00:36:26.614Z,97703.34
2023-02-04T00:38:59.629Z,97699.34
2023-02-04T00:41:32.807Z,97697.75
2023-02-04T00:44:06.243Z,97695.38
2023-02-04T00:46:39.067Z,97701.78
2023-02-04T00:49:12.186Z,97708.19
2023-02-04T00:51:46.870Z,97718.09
2023-02-04T00:54:19.808Z,97700.78
2023-02-04T00:56:52.733Z,97703.16
2023-02-04T00:59:25.708Z,97717.59
2023-02-04T01:01:58.744Z,97715.19
2023-02-04T01:04:31.833Z,97719.44
2023-02-04T01:07:06.355Z,97710.66
2023-02-04T01:09:39.282Z,97707.47
2023-02-04T01:12:12.159Z,97705.06
2023-02-04T01:14:45.064Z,97717.06
2023-02-04T01:17:19.244Z,97717.06
2023-02-04T01:19:52.129Z,97720.25
2023-02-04T01:22:26.442Z,97720.25
2023-02-04T01:24:59.375Z,97715.72
2023-02-04T01:27:32.242Z,97724.78
2023-02-04T01:30:06.262Z,97723.72
2023-02-04T01:32:39.175Z,97723.72
2023-02-04T01:35:12.185Z,97713.84
2023-02-04T01:37:46.417Z,97727.66
2023-02-04T01:40:19.971Z,97731.13
2023-02-04T01:42:53.577Z,97721.25
2023-02-04T01:45:26.517Z,97718.03
2023-02-04T01:47:59.354Z,97712.69
2023-02-04T01:50:32.979Z,97719.66
2023-02-04T01:53:07.459Z,97718.28
2023-02-04T01:55:40.338Z,97707.91
2023-02-04T01:58:13.989Z,97707.63
2023-02-04T02:00:47.319Z,97714.25
2023-02-04T02:03:20.251Z,97708.91
2023-02-04T02:05:55.796Z,97702.22
2023-02-04T02:08:30.069Z,97700.34
2023-02-04T02:11:03.601Z,97708.88
2023-02-04T02:13:36.695Z,97711.53
2023-02-04T02:16:09.667Z,97710.16
2023-02-04T02:18:42.509Z,97696.00
2023-02-04T02:21:19.579Z,97699.19
2023-02-04T02:23:57.267Z,97694.38
2023-02-04T02:26:30.194Z,97696.22
2023-02-04T02:29:03.084Z,97691.69
2023-02-04T02:31:36.353Z,97687.94
2023-02-04T02:34:09.335Z,97690.34
2023-02-04T02:36:42.649Z,97686.88
2023-02-04T02:39:18.376Z,97691.94
2023-02-04T02:41:51.569Z,97682.31
2023-02-04T02:44:25.846Z,97679.38
2023-02-04T02:46:58.759Z,97673.72
2023-02-04T02:49:35.143Z,97666.22
2023-02-04T02:52:10.088Z,97663.56
2023-02-04T02:54:45.650Z,97669.94
2023-02-04T02:57:21.638Z,97669.13
2023-02-04T02:59:54.728Z,97678.50
2023-02-04T03:02:27.686Z,97684.13
2023-02-04T03:05:01.972Z,97686.22
2023-02-04T03:07:34.965Z,97697.19
2023-02-04T03:10:09.824Z,97696.91
2023-02-04T03:12:42.823Z,97686.22
2023-02-04T03:15:16.229Z,97690.50
2023-02-04T03:17:51.493Z,97699.28
2023-02-04T03:20:26.325Z,97691.28
2023-02-04T03:22:59.811Z,97688.63
2023-02-04T03:25:36.703Z,97692.56
2023-02-04T03:28:10.821Z,97701.66
2023-02-04T03:30:43.841Z,97689.91
2023-02-04T03:33:16.789Z,97696.31
2023-02-04T03:35:49.623Z,97700.56
2023-02-04T03:38:22.631Z,97703.25
2023-02-04T03:40:56.894Z,97700.28
2023-02-04T03:43:29.824Z,97692.88
2023-02-04T03:46:02.748Z,97690.97
2023-02-04T03:48:35.602Z,97699.50
2023-02-04T03:51:08.529Z,97706.22
2023-02-04T03:53:41.416Z,97704.84
2023-02-04T03:56:16.158Z,97701.88
2023-02-04T03:58:49.850Z,97698.41
2023-02-04T04:01:22.954Z,97697.91
2023-02-04T04:03:56.108Z,97689.63
2023-02-04T04:06:28.984Z,97693.06
2023-02-04T04:09:01.948Z,97693.06
2023-02-04T04:11:36.605Z,97697.06
2023-02-04T04:14:09.510Z,97708.53
2023-02-04T04:16:42.480Z,97710.13
2023-02-04T04:19:15.481Z,97697.56
2023-02-04T04:21:48.361Z,97703.13
2023-02-04T04:24:21.246Z,97704.44
2023-02-04T04:26:55.637Z,97706.81
2023-02-04T04:29:28.529Z,97703.06
2023-02-04T04:32:01.467Z,97694.47
2023-02-04T04:34:34.517Z,97689.91
2023-02-04T04:37:07.441Z,97691.50
2023-02-04T04:39:40.451Z,97699.22
2023-02-04T04:42:14.815Z,97693.91
2023-02-04T04:44:47.754Z,97679.47
2023-02-04T04:47:20.684Z,97684.81
2023-02-04T04:49:53.657Z,97693.59
2023-02-04T04:52:26.558Z,97701.63
2023-02-04T04:54:59.430Z,97700.81
2023-02-04T04:57:33.765Z,97700.81
2023-02-04T05:00:08.765Z,97700.81
2023-02-04T05:02:41.985Z,97702.69
2023-02-04T05:05:15.331Z,97697.06
2023-02-04T05:07:48.185Z,97702.91
2023-02-04T05:10:21.801Z,97694.09
2023-02-04T05:12:56.043Z,97699.94
2023-02-04T05:15:28.895Z,97692.72
2023-02-04T05:18:01.794Z,97702.34
2023-02-04T05:20:34.893Z,97704.72
2023-02-04T05:23:07.837Z,97697.50
2023-02-04T05:25:40.724Z,97699.91
2023-02-04T05:28:14.986Z,97697.69
2023-02-04T05:30:48.070Z,97694.25
2023-02-04T05:33:20.973Z,97687.81
2023-02-04T05:35:53.874Z,97699.81
2023-02-04T05:38:26.767Z,97700.31
2023-02-04T05:41:00.049Z,97693.91
2023-02-04T05:43:35.290Z,97700.84
2023-02-04T05:46:08.294Z,97702.38
2023-02-04T05:48:41.197Z,97713.88
2023-02-04T05:51:14.096Z,97703.69
2023-02-04T05:53:46.951Z,97701.03
2023-02-04T05:56:19.832Z,97696.47
2023-02-04T05:58:54.104Z,97707.97
2023-02-04T06:01:27.001Z,97714.09
2023-02-04T06:03:59.881Z,97710.63
2023-02-04T06:06:32.805Z,97714.63
2023-02-04T06:09:05.765Z,97714.09
2023-02-04T06:11:38.832Z,97722.91
2023-02-04T06:14:13.074Z,97714.63
2023-02-04T06:16:45.968Z,97726.91
2023-02-04T06:19:18.903Z,97733.84
2023-02-04T06:21:51.993Z,97734.13
2023-02-04T06:24:24.899Z,97730.84
2023-02-04T06:26:57.937Z,97725.50
2023-02-04T06:29:32.188Z,97722.25
2023-02-04T06:32:05.439Z,97718.78
2023-02-04T06:34:38.332Z,97719.59
2023-02-04T06:37:11.241Z,97718.50
2023-02-04T06:39:44.546Z,97723.84
2023-02-04T06:42:17.478Z,97719.31
2023-02-04T06:44:51.728Z,97723.28
2023-02-04T06:47:24.635Z,97722.78
2023-02-04T06:49:57.529Z,97722.78
2023-02-04T06:52:30.394Z,97726.53
2023-02-04T06:55:03.262Z,97728.41
2023-02-04T06:57:36.146Z,97731.06
2023-02-04T07:00:12.877Z,97738.28
2023-02-04T07:02:46.206Z,97732.44
2023-02-04T07:05:19.455Z,97738.56
2023-02-04T07:07:52.609Z,97736.19
2023-02-04T07:10:25.487Z,97743.72
2023-02-04T07:12:58.381Z,97746.09
2023-02-04T07:15:32.693Z,97750.44
2023-02-04T07:18:05.704Z,97758.16
2023-02-04T07:20:38.529Z,97754.19
2023-02-04T07:23:11.449Z,97756.56
2023-02-04T07:25:45.086Z,97758.44
2023-02-04T07:28:17.992Z,97752.31
2023-02-04T07:30:52.703Z,97750.63
2023-02-04T07:33:25.780Z,97750.63
2023-02-04T07:35:58.651Z,97757.56
2023-02-04T07:38:31.730Z,97755.69
2023-02-04T07:41:05.120Z,97761.56
2023-02-04T07:43:38.184Z,97757.28
2023-02-04T07:46:12.458Z,97762.34
2023-02-04T07:48:45.420Z,97754.03
2023-02-04T07:51:18.285Z,97763.94
2023-02-04T07:53:51.165Z,97761.78
2023-02-04T07:56:24.321Z,97771.06
2023-02-04T07:58:57.371Z,97769.19
2023-02-04T08:01:31.641Z,97773.19
2023-02-04T08:04:04.772Z,97768.91
2023-02-04T08:06:37.589Z,97764.38
2023-02-04T08:09:10.529Z,97767.84
2023-02-04T08:11:43.409Z,97770.22
2023-02-04T08:14:16.573Z,97778.75
2023-02-04T08:16:50.782Z,97782.22
2023-02-04T08:19:23.917Z,97783.00
2023-02-04T08:21:56.816Z,97782.22
2023-02-04T08:24:29.661Z,97780.03
2023-02-04T08:27:02.547Z,97785.09
2023-02-04T08:29:35.460Z,97788.00
2023-02-04T08:32:10.188Z,97794.34
2023-02-04T08:34:44.085Z,97789.50
2023-02-04T08:37:17.017Z,97800.44
2023-02-04T08:39:49.884Z,97784.88
2023-02-04T08:42:22.753Z,97803.53
2023-02-04T08:44:55.666Z,97785.31
2023-02-04T08:47:29.967Z,97781.75
2023-02-04T08:50:03.741Z,97788.41
2023-02-04T08:52:36.762Z,97789.69
2023-02-04T08:55:10.212Z,97792.28
2023-02-04T08:57:43.046Z,97785.56
2023-02-04T09:00:16.939Z,97783.66
2023-02-04T09:02:51.412Z,97803.41
2023-02-04T09:05:24.329Z,97799.94
2023-02-04T09:07:57.214Z,97803.41
2023-02-04T09:10:30.250Z,97805.50
2023-02-04T09:13:03.319Z,97802.03
2023-02-04T09:15:36.574Z,97803.31
2023-02-04T09:18:16.443Z,97812.66
2023-02-04T09:20:49.793Z,97813.94
2023-02-04T09:23:24.035Z,97811.81
2023-02-04T09:25:57.064Z,97811.50
2023-02-04T09:28:29.938Z,97812.00
2023-02-04T09:31:04.536Z,97808.75
2023-02-04T09:33:39.387Z,97815.41
2023-02-04T09:36:12.278Z,97818.09
2023-02-04T09:38:45.452Z,97824.72
2023-02-04T09:41:18.328Z,97812.63
2023-02-04T09:43:51.423Z,97821.97
2023-02-04T09:46:28.618Z,97822.97
2023-02-04T09:49:03.640Z,97820.69
2023-02-04T09:51:37.316Z,97824.09
2023-02-04T09:54:14.250Z,97829.56
2023-02-04T09:56:48.105Z,97820.06
2023-02-04T09:59:23.305Z,97817.47
2023-02-04T10:02:00.297Z,97837.63
2023-02-04T10:04:34.621Z,97844.19
2023-02-04T10:07:13.432Z,97836.53
2023-02-04T10:09:46.632Z,97829.00
2023-02-04T10:12:19.742Z,97826.81
2023-02-04T10:14:53.109Z,97839.63
2023-02-04T10:17:26.627Z,97849.53
2023-02-04T10:20:01.339Z,97850.34
2023-02-04T10:22:34.860Z,97852.81
2023-02-04T10:25:14.296Z,97855.00
2023-02-04T10:27:51.704Z,97859.66
2023-02-04T10:30:27.280Z,97852.53
2023-02-04T10:33:01.419Z,97843.47
2023-02-04T10:35:46.365Z,97836.03
2023-02-04T10:38:19.681Z,97846.03
2023-02-04T10:41:02.843Z,97846.38
2023-02-04T10:43:35.860Z,97845.84
2023-02-04T10:46:08.764Z,97845.34
2023-02-04T10:48:42.730Z,97840.56
2023-02-04T10:51:16.958Z,97841.97
2023-02-04T10:54:07.735Z,97844.22
2023-02-04T10:56:40.686Z,97835.59
2023-02-04T10:59:23.841Z,97833.00
2023-02-04T11:01:58.451Z,97833.16
2023-02-04T11:04:32.420Z,97829.88
2023-02-04T11:07:11.766Z,97835.91
2023-02-04T11:09:45.353Z,97834.13
2023-02-04T11:12:22.589Z,97843.31
2023-02-04T11:14:59.683Z,97841.53
2023-02-04T11:17:34.433Z,97840.81
2023-02-04T11:20:17.907Z,97845.38
2023-02-04T11:22:54.014Z,97837.13
2023-02-04T11:25:34.130Z,97844.06
2023-02-04T11:28:15.612Z,97847.00
2023-02-04T11:31:00.546Z,97835.53
2023-02-04T11:33:41.491Z,97843.03
2023-02-04T11:36:16.447Z,97842.84
2023-02-04T11:38:51.468Z,97845.50
2023-02-04T11:41:28.299Z,97840.72
2023-02-04T11:44:01.685Z,97843.69
2023-02-04T11:46:34.743Z,97834.06
2023-02-04T11:49:18.694Z,97838.28
2023-02-04T11:51:51.743Z,97834.22
2023-02-04T11:54:25.946Z,97839.22
2023-02-04T11:57:01.294Z,97835.38
2023-02-04T11:59:34.304Z,97843.81
2023-02-04T12:02:16.021Z,97842.69
2023-02-04T12:04:53.826Z,97843.94
2023-02-04T12:07:28.965Z,97848.91
2023-02-04T12:10:12.790Z,97850.91
2023-02-04T12:12:51.620Z,97854.50
2023-02-04T12:15:26.334Z,97856.00
2023-02-04T12:18:04.311Z,97852.66
2023-02-04T12:20:37.576Z,97853.84
2023-02-04T12:23:10.434Z,97848.59
2023-02-04T12:25:44.669Z,97854.88
2023-02-04T12:28:17.754Z,97841.13
2023-02-04T12:30:50.922Z,97852.69
2023-02-04T12:33:23.861Z,97846.97
2023-02-04T12:35:56.703Z,97839.81
2023-02-04T12:38:29.584Z,97842.59
2023-02-04T12:41:03.941Z,97847.44
2023-02-04T12:43:36.831Z,97836.81
2023-02-04T12:46:09.716Z,97837.09
2023-02-04T12:48:42.667Z,97834.41
2023-02-04T12:51:15.778Z,97840.06
2023-02-04T12:53:49.109Z,97841.09
2023-02-04T12:56:24.312Z,97839.16
2023-02-04T12:58:57.520Z,97843.81
2023-02-04T13:01:30.474Z,97849.72
2023-02-04T13:04:03.413Z,97850.09
2023-02-04T13:06:36.424Z,97851.56
2023-02-04T13:09:09.314Z,97850.94
2023-02-04T13:11:43.634Z,97853.78
2023-02-04T13:14:16.697Z,97858.38
2023-02-04T13:16:49.568Z,97849.53
2023-02-04T13:19:22.484Z,97848.56
2023-02-04T13:21:55.360Z,97853.75
2023-02-04T13:24:28.897Z,97865.56
2023-02-04T13:27:03.240Z,97867.16
2023-02-04T13:29:36.376Z,97862.59
2023-02-04T13:32:09.594Z,97862.78
2023-02-04T13:34:42.703Z,97855.53
2023-02-04T13:37:15.587Z,97863.28
2023-02-04T13:39:48.511Z,97864.66
2023-02-04T13:42:23.300Z,97868.94
2023-02-04T13:44:56.176Z,97876.81
2023-02-04T13:47:29.191Z,97886.47
2023-02-04T13:50:02.105Z,97886.47
2023-02-04T13:52:35.116Z,97883.78
2023-02-04T13:55:08.082Z,97886.94
2023-02-04T13:57:42.369Z,97892.81
2023-02-04T14:00:16.219Z,97895.66
2023-02-04T14:02:49.633Z,97894.88
2023-02-04T14:05:22.579Z,97893.47
2023-02-04T14:07:55.485Z,97890.00
2023-02-04T14:10:28.557Z,97890.50
2023-02-04T14:13:02.788Z,97889.69
2023-02-04T14:15:37.744Z,97892.69
2023-02-04T14:18:11.347Z,97890.28
2023-02-04T14:20:44.300Z,97900.53
2023-02-04T14:23:17.209Z,97890.13
2023-02-04T14:25:50.087Z,97893.13
2023-02-04T14:28:24.724Z,97891.81
2023-02-04T14:30:57.735Z,97885.50
2023-02-04T14:33:30.640Z,97884.50
2023-02-04T14:36:03.600Z,97886.22
2023-02-04T14:38:38.569Z,97883.34
2023-02-04T14:41:16.376Z,97883.47
2023-02-04T14:43:50.729Z,97884.38
2023-02-04T14:46:24.043Z,97890.34
2023-02-04T14:48:57.268Z,97895.81
2023-02-04T14:51:30.246Z,97893.75
2023-02-04T14:54:03.392Z,97894.06
2023-02-04T14:56:36.353Z,97891.69
2023-02-04T14:59:11.115Z,97903.38
2023-02-04T15:01:46.315Z,97904.97
2023-02-04T15:04:19.599Z,97905.97
2023-02-04T15:06:54.104Z,97896.19
2023-02-04T15:09:27.592Z,97893.72
2023-02-04T15:12:02.903Z,97899.25
2023-02-04T15:14:37.218Z,97902.94
2023-02-04T15:17:10.208Z,97899.75
2023-02-04T15:19:43.151Z,97905.72
2023-02-04T15:22:16.361Z,97910.13
2023-02-04T15:24:49.418Z,97911.63
2023-02-04T15:27:22.325Z,97897.03
2023-02-04T15:29:56.732Z,97906.78
2023-02-04T15:32:29.842Z,97904.50
2023-02-04T15:35:02.994Z,97910.78
2023-02-04T15:37:35.962Z,97915.16
2023-02-04T15:40:10.008Z,97923.31
2023-02-04T15:42:43.070Z,97906.53
2023-02-04T15:45:17.383Z,97910.13
2023-02-04T15:47:50.889Z,97913.97
2023-02-04T15:50:23.805Z,97906.31
2023-02-04T15:52:56.694Z,97911.78
2023-02-04T15:55:30.163Z,97916.16
2023-02-04T15:58:03.057Z,97921.31
2023-02-04T16:00:37.569Z,97914.97
2023-02-04T16:03:10.861Z,97913.47
2023-02-04T16:05:43.717Z,97918.34
2023-02-04T16:08:16.669Z,97918.72
2023-02-04T16:10:50.562Z,97920.69
2023-02-04T16:13:23.549Z,97917.03
2023-02-04T16:15:57.958Z,97930.22
2023-02-04T16:18:31.009Z,97932.19
2023-02-04T16:21:04.230Z,97931.78
2023-02-04T16:23:37.149Z,97944.78
2023-02-04T16:26:10.100Z,97938.69
2023-02-04T16:28:43.055Z,97951.97
2023-02-04T16:31:17.483Z,97952.34
2023-02-04T16:33:50.488Z,97949.53
2023-02-04T16:36:23.435Z,97957.94
2023-02-04T16:38:56.548Z,97957.53
2023-02-04T16:41:29.574Z,97954.41
2023-02-04T16:44:02.527Z,97954.47
2023-02-04T16:46:36.941Z,97955.38
2023-02-04T16:49:09.866Z,97952.53
2023-02-04T16:51:42.761Z,97948.81
2023-02-04T16:54:16.068Z,97963.34
2023-02-04T16:56:49.041Z,97961.53
2023-02-04T16:59:22.035Z,97965.88
2023-02-04T17:01:57.650Z,97969.13
2023-02-04T17:04:32.405Z,97972.16
2023-02-04T17:07:05.636Z,97977.78
2023-02-04T17:09:38.502Z,97975.66
2023-02-04T17:12:11.370Z,97977.34
2023-02-04T17:14:44.433Z,97974.94
2023-02-04T17:17:19.350Z,97980.56
2023-02-04T17:19:52.217Z,97982.72
2023-02-04T17:22:25.162Z,97983.03
2023-02-04T17:24:58.221Z,97980.13
2023-02-04T17:27:31.169Z,97971.31
2023-02-04T17:30:04.168Z,97969.00
2023-02-04T17:32:38.912Z,97974.91
2023-02-04T17:35:12.473Z,97969.91
2023-02-04T17:37:45.631Z,97969.72
2023-02-04T17:40:19.049Z,97969.56
2023-02-04T17:42:51.920Z,97974.72
2023-02-04T17:45:24.912Z,97969.75
2023-02-04T17:47:59.229Z,97969.03
2023-02-04T17:50:33.936Z,97971.88
2023-02-04T17:53:07.901Z,97968.78
2023-02-04T17:55:40.897Z,97973.94
2023-02-04T17:58:15.751Z,97976.44
2023-02-04T18:00:50.354Z,97971.22
2023-02-04T18:03:27.041Z,97983.28
2023-02-04T18:06:00.959Z,97983.09
2023-02-04T18:08:38.642Z,97989.28
2023-02-04T18:11:17.738Z,97991.72
2023-02-04T18:13:51.053Z,97987.81
2023-02-04T18:16:27.533Z,97990.22
2023-02-04T18:19:17.371Z,97988.13
2023-02-04T18:21:51.373Z,97988.16
2023-02-04T18:24:27.321Z,97989.50
2023-02-04T18:27:04.686Z,97989.78
2023-02-04T18:29:39.629Z,97990.31
2023-02-04T18:32:18.808Z,97988.47
2023-02-04T18:34:54.946Z,97991.94
2023-02-04T18:37:31.999Z,97991.97
2023-02-04T18:40:26.313Z,97993.31
2023-02-04T18:43:19.884Z,97982.66
2023-02-04T18:45:53.186Z,97986.66
2023-02-04T18:49:16.713Z,97989.56
2023-02-04T18:51:51.658Z,97994.59
2023-02-04T18:54:28.296Z,98000.19
2023-02-04T18:57:29.898Z,97996.72
2023-02-04T19:00:30.789Z,97995.91
2023-02-04T19:03:19.595Z,97996.72
2023-02-04T19:05:53.326Z,97999.38
2023-02-04T19:08:30.252Z,98007.34
2023-02-04T19:11:05.024Z,98010.53
2023-02-04T19:13:40.168Z,98006.28
2023-02-04T19:16:24.403Z,98008.41
2023-02-04T19:18:58.191Z,98008.69
2023-02-04T19:21:32.116Z,98011.06
2023-02-04T19:24:18.146Z,98012.13
2023-02-04T19:26:56.037Z,98011.06
2023-02-04T19:29:40.693Z,98009.75
2023-02-04T19:32:25.133Z,98011.06
2023-02-04T19:35:01.309Z,98018.78
2023-02-04T19:37:40.249Z,98022.78
2023-02-04T19:40:26.954Z,98016.97
2023-02-04T19:43:17.445Z,98012.94
2023-02-04T19:45:51.694Z,98012.94
2023-02-04T19:48:33.411Z,98010.31
2023-02-04T19:51:23.819Z,98006.84
2023-02-04T19:54:02.556Z,98001.53
2023-02-04T19:56:39.304Z,98016.44
2023-02-04T19:59:24.568Z,98003.38
2023-02-04T20:02:16.210Z,98007.09
2023-02-04T20:04:54.126Z,97993.81
2023-02-04T20:07:28.619Z,98002.31
2023-02-04T20:10:23.612Z,97994.06
2023-02-04T20:13:01.766Z,97999.91
2023-02-04T20:15:34.973Z,98001.25
2023-02-04T20:18:15.712Z,98004.66
2023-02-04T20:20:48.644Z,98009.72
2023-02-04T20:23:29.036Z,98017.44
2023-02-04T20:26:02.912Z,98018.19
2023-02-04T20:28:42.357Z,98024.28
2023-02-04T20:31:29.555Z,98020.53
2023-02-04T20:34:02.565Z,98035.38
2023-02-04T20:36:42.503Z,98026.84
2023-02-04T20:39:42.052Z,98030.78
2023-02-04T20:42:35.848Z,98038.72
2023-02-04T20:45:42.497Z,98037.34
2023-02-04T20:48:33.419Z,98053.22
2023-02-04T20:51:22.183Z,98044.13
2023-02-04T20:53:58.308Z,98054.72
2023-02-04T20:56:35.783Z,98053.63
2023-02-04T20:59:25.166Z,98049.91
2023-02-04T21:01:58.112Z,98050.41
2023-02-04T21:04:37.889Z,98065.28
2023-02-04T21:07:17.050Z,98058.38
2023-02-04T21:09:51.724Z,98055.16
2023-02-04T21:12:26.590Z,98056.22
2023-02-04T21:14:59.506Z,98058.34
2023-02-04T21:17:32.429Z,98058.34
2023-02-04T21:20:07.485Z,98066.31
2023-02-04T21:22:40.437Z,98062.28
2023-02-04T21:25:13.546Z,98071.56
2023-02-04T21:27:46.755Z,98069.44
2023-02-04T21:30:21.636Z,98061.72
2023-02-04T21:32:54.573Z,98067.75
2023-02-04T21:35:29.112Z,98069.09
2023-02-04T21:38:04.373Z,98070.88
2023-02-04T21:40:38.830Z,98074.88
2023-02-04T21:43:12.035Z,98076.66
2023-02-04T21:45:44.931Z,98077.19
2023-02-04T21:48:17.830Z,98075.00
2023-02-04T21:50:52.097Z,98077.91
2023-02-04T21:53:25.083Z,98086.38
2023-02-04T21:55:59.416Z,98087.69
2023-02-04T21:58:32.451Z,98093.25
2023-02-04T22:01:05.485Z,98095.88
2023-02-04T22:03:38.703Z,98098.28
2023-02-04T22:06:13.420Z,98095.41
2023-02-04T22:08:46.315Z,98102.84
2023-02-04T22:11:19.209Z,98100.50
2023-02-04T22:13:52.082Z,98099.16
2023-02-04T22:16:25.107Z,98101.88
2023-02-04T22:18:57.990Z,98100.06
2023-02-04T22:21:34.493Z,98095.88
2023-02-04T22:24:07.526Z,98096.16
2023-02-04T22:26:40.371Z,98098.06
2023-02-04T22:29:13.275Z,98092.25
2023-02-04T22:31:46.235Z,98098.91
2023-02-04T22:34:19.125Z,98096.56
2023-02-04T22:36:53.739Z,98099.75
2023-02-04T22:39:26.656Z,98105.88
2023-02-04T22:41:59.491Z,98098.16
2023-02-04T22:44:32.815Z,98097.91
2023-02-04T22:47:05.993Z,98084.63
2023-02-04T22:49:39.030Z,98091.00
2023-02-04T22:52:24.429Z,98095.50
2023-02-04T22:54:57.925Z,98101.31
2023-02-04T22:57:30.805Z,98089.59
2023-02-04T23:00:03.926Z,98094.06
2023-02-04T23:02:36.902Z,98100.13
2023-02-04T23:05:10.117Z,98098.22
2023-02-04T23:07:44.470Z,98096.09
2023-02-04T23:10:17.643Z,98110.91
2023-02-04T23:12:50.595Z,98101.06
2023-02-04T23:15:23.789Z,98104.19
2023-02-04T23:17:56.669Z,98107.09
2023-02-04T23:20:29.618Z,98099.63
2023-02-04T23:23:04.477Z,98101.00
2023-02-04T23:25:37.715Z,98103.09
2023-02-04T23:28:10.611Z,98104.94
2023-02-04T23:30:43.929Z,98104.13
2023-02-04T23:33:16.832Z,98114.25
2023-02-04T23:35:50.136Z,98107.34
2023-02-04T23:38:24.569Z,98114.81
2023-02-04T23:41:00.034Z,98108.94
2023-02-04T23:43:33.192Z,98106.03
2023-02-04T23:46:06.486Z,98115.84
2023-02-04T23:48:39.841Z,98121.97
2023-02-04T23:51:12.786Z,98114.00
2023-02-04T23:53:47.002Z,98114.81
2023-02-04T23:56:19.964Z,98110.78
2023-02-04T23:58:54.120Z,98112.41
